Time;durP1;ratioP1;P1;durP2;ratioP2;P2;SDS_P1;SDS_P2;PMS_P1;PMS_P2;Temp;Humidity;BMP_temperature;BMP_pressure;BME280_temperature;BME280_humidity;BME280_pressure;Samples;Min_cycle;Max_cycle;Signal;HPM_P1;HPM_P2
2021/12/24 00:00:01;;;;;;;0.70;0.67;;;;;;;;;;5034033;28;20060;-62
2021/12/24 00:02:28;;;;;;;1.30;0.80;;;;;;;;;;5034004;28;20391;-62
2021/12/24 00:04:55;;;;;;;1.90;1.03;;;;;;;;;;5033969;28;20073;-62
2021/12/24 00:07:21;;;;;;;1.63;0.90;;;;;;;;;;5031883;28;20032;-62
2021/12/24 00:09:48;;;;;;;2.73;0.80;;;;;;;;;;5028049;28;20034;-62
2021/12/24 00:12:19;;;;;;;3.60;1.03;;;;;;;;;;5028327;28;20108;-62
2021/12/24 00:14:51;;;;;;;1.90;0.70;;;;;;;;;;5028715;28;20029;-61
2021/12/24 00:17:24;;;;;;;2.53;0.67;;;;;;;;;;5029587;28;20472;-62
2021/12/24 00:36:12;;;;;;;1.42;0.52;;;;;;;;;;5028322;28;20427;-62
2021/12/24 00:38:39;;;;;;;0.73;0.50;;;;;;;;;;5027684;28;20028;-62
2021/12/24 00:41:06;;;;;;;3.80;0.63;;;;;;;;;;5032276;28;20040;-61
2021/12/24 00:43:32;;;;;;;1.90;0.50;;;;;;;;;;5033311;28;20075;-62
2021/12/24 00:45:59;;;;;;;1.47;0.40;;;;;;;;;;5032939;28;20053;-62
2021/12/24 00:48:26;;;;;;;1.27;0.53;;;;;;;;;;5033252;28;20037;-61
2021/12/24 00:51:18;;;;;;;1.33;0.80;;;;;;;;;;5032591;28;20507;-62
2021/12/24 00:56:14;;;;;;;3.27;0.87;;;;;;;;;;5028041;28;20036;-62
2021/12/24 00:58:42;;;;;;;1.67;0.80;;;;;;;;;;5027674;28;20026;-62
2021/12/24 01:01:09;;;;;;;7.97;1.90;;;;;;;;;;5027488;28;20503;-62
2021/12/24 01:03:36;;;;;;;4.13;1.23;;;;;;;;;;5032103;28;20025;-61
2021/12/24 01:06:03;;;;;;;4.77;1.87;;;;;;;;;;5032569;28;20029;-61
2021/12/24 01:08:30;;;;;;;5.93;1.67;;;;;;;;;;5032358;28;20044;-61
2021/12/24 01:11:02;;;;;;;5.43;3.20;;;;;;;;;;5032760;28;20038;-61
2021/12/24 01:13:29;;;;;;;4.53;1.30;;;;;;;;;;5032712;28;20025;-62
2021/12/24 01:16:04;;;;;;;7.07;2.90;;;;;;;;;;5026737;28;20029;-62
2021/12/24 01:23:59;;;;;;;6.57;1.73;;;;;;;;;;5027279;28;19963;-62
2021/12/24 01:26:43;;;;;;;4.93;1.60;;;;;;;;;;5032468;28;20026;-62
2021/12/24 01:40:26;;;;;;;2.37;1.37;;;;;;;;;;5026883;28;20565;-62
2021/12/24 01:42:53;;;;;;;4.03;1.10;;;;;;;;;;5027248;28;20053;-61
2021/12/24 01:45:23;;;;;;;7.83;2.07;;;;;;;;;;5027213;28;20052;-61
2021/12/24 01:47:50;;;;;;;4.77;1.20;;;;;;;;;;5030503;28;20031;-62
2021/12/24 01:50:18;;;;;;;5.07;1.40;;;;;;;;;;5033447;28;20029;-61
2021/12/24 01:52:48;;;;;;;5.63;2.07;;;;;;;;;;5036334;28;20029;-62
2021/12/24 01:55:14;;;;;;;5.67;1.60;;;;;;;;;;5036251;28;20079;-61
2021/12/24 01:57:42;;;;;;;7.60;2.90;;;;;;;;;;5036100;28;20100;-62
2021/12/24 02:00:10;;;;;;;4.57;1.83;;;;;;;;;;5031505;28;20384;-62
2021/12/24 02:02:37;;;;;;;4.00;1.80;;;;;;;;;;5030670;28;20026;-61
2021/12/24 02:05:04;;;;;;;4.20;1.90;;;;;;;;;;5031001;28;20025;-62
2021/12/24 02:07:31;;;;;;;4.87;2.10;;;;;;;;;;5030687;28;20435;-62
2021/12/24 02:09:57;;;;;;;15.60;5.27;;;;;;;;;;5034696;28;20026;-61
2021/12/24 02:12:25;;;;;;;11.43;3.93;;;;;;;;;;5035827;28;20067;-61
2021/12/24 02:14:56;;;;;;;6.23;2.23;;;;;;;;;;5035172;28;20025;-62
2021/12/24 02:17:42;;;;;;;12.70;3.07;;;;;;;;;;5015856;28;20477;-61
2021/12/24 02:28:38;;;;;;;9.90;3.05;;;;;;;;;;5010706;28;20085;-61
2021/12/24 02:31:06;;;;;;;5.03;1.90;;;;;;;;;;5011653;28;20469;-62
2021/12/24 02:33:33;;;;;;;6.50;2.23;;;;;;;;;;5026479;28;20020;-61
2021/12/24 02:36:00;;;;;;;9.20;2.33;;;;;;;;;;5035605;28;20030;-61
2021/12/24 02:38:27;;;;;;;7.27;2.13;;;;;;;;;;5035653;28;20044;-61
2021/12/24 02:40:54;;;;;;;5.97;1.90;;;;;;;;;;5035522;28;20098;-62
2021/12/24 02:43:23;;;;;;;10.70;2.10;;;;;;;;;;5033323;28;20045;-62
2021/12/24 02:45:53;;;;;;;5.13;2.00;;;;;;;;;;5029946;28;20036;-61
2021/12/24 02:53:58;;;;;;;4.87;1.10;;;;;;;;;;5032087;28;20040;-62
2021/12/24 02:56:32;;;;;;;12.33;1.90;;;;;;;;;;5034768;28;20075;-62
2021/12/24 02:59:06;;;;;;;4.95;1.45;;;;;;;;;;5035128;28;20030;-62
2021/12/24 03:01:35;;;;;;;4.63;1.80;;;;;;;;;;5034921;28;20112;-62
2021/12/24 03:04:02;;;;;;;4.20;1.20;;;;;;;;;;5034930;28;20105;-61
2021/12/24 03:06:31;;;;;;;2.87;1.23;;;;;;;;;;5031150;28;20021;-61
2021/12/24 03:08:58;;;;;;;3.90;1.27;;;;;;;;;;5029382;28;20029;-61
2021/12/24 03:11:25;;;;;;;3.00;0.93;;;;;;;;;;5029144;28;20096;-61
2021/12/24 03:13:53;;;;;;;3.93;1.20;;;;;;;;;;5029604;28;20028;-61
2021/12/24 03:16:20;;;;;;;5.83;1.60;;;;;;;;;;5031991;28;20068;-61
2021/12/24 03:18:47;;;;;;;1.80;1.10;;;;;;;;;;5034668;28;20025;-62
2021/12/24 03:21:20;;;;;;;2.67;1.47;;;;;;;;;;5034138;28;20029;-61
2021/12/24 03:26:33;;;;;;;2.00;0.80;;;;;;;;;;5034165;28;20060;-62
2021/12/24 03:29:00;;;;;;;4.87;1.80;;;;;;;;;;5030329;28;20026;-61
2021/12/24 03:31:27;;;;;;;3.70;1.70;;;;;;;;;;5028669;28;20643;-61
2021/12/24 03:33:54;;;;;;;11.83;2.90;;;;;;;;;;5029367;28;20087;-61
2021/12/24 03:36:21;;;;;;;7.13;1.57;;;;;;;;;;5028913;28;20033;-61
2021/12/24 03:38:48;;;;;;;4.33;1.60;;;;;;;;;;5032516;28;20504;-61
2021/12/24 03:41:15;;;;;;;5.40;2.10;;;;;;;;;;5034363;28;20104;-61
2021/12/24 03:43:42;;;;;;;3.17;1.43;;;;;;;;;;5034362;28;20032;-61
2021/12/24 03:46:14;;;;;;;4.37;1.20;;;;;;;;;;5033798;28;20025;-61
2021/12/24 03:48:52;;;;;;;6.47;1.50;;;;;;;;;;5034089;28;20060;-61
2021/12/24 03:51:50;;;;;;;6.43;1.83;;;;;;;;;;5030129;28;20059;-61
2021/12/24 03:57:02;;;;;;;5.82;2.03;;;;;;;;;;5028645;28;20537;-61
2021/12/24 03:59:28;;;;;;;3.33;1.30;;;;;;;;;;5028924;28;20022;-61
2021/12/24 04:01:55;;;;;;;2.90;1.20;;;;;;;;;;5033711;28;20022;-61
2021/12/24 04:04:22;;;;;;;3.97;1.70;;;;;;;;;;5033595;28;20026;-61
2021/12/24 04:06:49;;;;;;;3.00;0.80;;;;;;;;;;5033880;28;20092;-61
2021/12/24 04:09:15;;;;;;;3.13;1.33;;;;;;;;;;5033453;28;20031;-61
2021/12/24 04:11:42;;;;;;;5.33;1.20;;;;;;;;;;5033667;28;20452;-61
2021/12/24 04:14:09;;;;;;;2.90;1.40;;;;;;;;;;5028210;28;20355;-61
2021/12/24 04:16:36;;;;;;;3.57;1.47;;;;;;;;;;5027512;28;20072;-61
2021/12/24 04:24:52;;;;;;;11.43;1.75;;;;;;;;;;5033585;28;20099;-61
2021/12/24 04:27:23;;;;;;;5.68;1.55;;;;;;;;;;5032933;28;20037;-61
2021/12/24 04:29:51;;;;;;;10.37;2.50;;;;;;;;;;5033480;28;20465;-61
2021/12/24 04:32:23;;;;;;;5.83;1.80;;;;;;;;;;5033475;28;20120;-61
2021/12/24 04:34:52;;;;;;;4.90;1.90;;;;;;;;;;5031584;28;20036;-62
2021/12/24 05:01:43;;;;;;;5.03;2.03;;;;;;;;;;5044090;28;20772;-61
2021/12/24 05:04:12;;;;;;;6.23;2.67;;;;;;;;;;5036358;28;20041;-61
2021/12/24 05:06:49;;;;;;;7.13;2.90;;;;;;;;;;5028222;28;20434;-60
2021/12/24 05:09:20;;;;;;;4.50;1.47;;;;;;;;;;5032121;28;20290;-60
2021/12/24 05:11:47;;;;;;;5.73;1.70;;;;;;;;;;5032303;28;20804;-60
2021/12/24 05:14:15;;;;;;;4.27;1.40;;;;;;;;;;5032635;28;20837;-61
2021/12/24 05:16:48;;;;;;;7.93;1.83;;;;;;;;;;5032759;28;20243;-60
2021/12/24 05:22:00;;;;;;;4.93;1.53;;;;;;;;;;5028035;28;20316;-60
2021/12/24 05:24:30;;;;;;;2.30;0.87;;;;;;;;;;5026874;28;20340;-61
2021/12/24 05:27:02;;;;;;;2.03;1.03;;;;;;;;;;5027605;28;20290;-60
2021/12/24 05:29:29;;;;;;;3.50;1.33;;;;;;;;;;5028846;28;20321;-60
2021/12/24 05:31:56;;;;;;;3.13;1.07;;;;;;;;;;5032101;28;20325;-60
2021/12/24 05:34:23;;;;;;;4.90;1.50;;;;;;;;;;5031836;28;20776;-61
2021/12/24 05:36:50;;;;;;;7.20;1.63;;;;;;;;;;5032565;28;20756;-60
2021/12/24 05:39:18;;;;;;;2.40;1.27;;;;;;;;;;5032243;28;20270;-60
2021/12/24 05:41:45;;;;;;;5.60;2.20;;;;;;;;;;5029855;28;20316;-61
2021/12/24 05:44:15;;;;;;;6.23;1.50;;;;;;;;;;5027122;28;20282;-60
2021/12/24 05:46:44;;;;;;;3.17;1.37;;;;;;;;;;5026724;28;20353;-60
2021/12/24 05:49:10;;;;;;;3.63;1.33;;;;;;;;;;5027227;28;20279;-61
2021/12/24 05:51:37;;;;;;;5.93;2.13;;;;;;;;;;5028572;28;20298;-60
2021/12/24 05:54:05;;;;;;;6.23;1.33;;;;;;;;;;5032114;28;20328;-60
2021/12/24 05:56:32;;;;;;;3.33;1.13;;;;;;;;;;5031998;28;20302;-60
2021/12/24 05:58:58;;;;;;;4.23;1.17;;;;;;;;;;5032109;28;20259;-60
2021/12/24 06:01:25;;;;;;;9.43;1.70;;;;;;;;;;5032380;28;20348;-60
2021/12/24 06:03:52;;;;;;;3.73;1.40;;;;;;;;;;5029801;28;20259;-60
2021/12/24 06:06:19;;;;;;;4.33;1.30;;;;;;;;;;5027030;28;20880;-61
2021/12/24 06:08:45;;;;;;;3.37;1.30;;;;;;;;;;5026717;28;20262;-60
2021/12/24 06:11:12;;;;;;;3.60;1.50;;;;;;;;;;5026622;28;20317;-60
2021/12/24 06:13:39;;;;;;;4.97;1.43;;;;;;;;;;5028008;28;20258;-60
2021/12/24 06:16:07;;;;;;;5.83;1.53;;;;;;;;;;5031734;28;20621;-60
2021/12/24 06:18:37;;;;;;;10.50;1.50;;;;;;;;;;5031233;28;20270;-60
2021/12/24 06:21:04;;;;;;;6.00;1.17;;;;;;;;;;5031831;28;20362;-60
2021/12/24 06:23:31;;;;;;;6.53;1.70;;;;;;;;;;5031533;28;20274;-60
2021/12/24 06:25:59;;;;;;;11.77;2.10;;;;;;;;;;5030726;28;20259;-60
2021/12/24 06:28:27;;;;;;;6.13;1.30;;;;;;;;;;5026398;28;20278;-61
2021/12/24 06:30:54;;;;;;;4.23;1.10;;;;;;;;;;5026796;28;20295;-60
2021/12/24 06:33:20;;;;;;;3.70;1.20;;;;;;;;;;5026435;28;20271;-60
2021/12/24 06:35:47;;;;;;;3.00;1.70;;;;;;;;;;5027772;28;20320;-60
2021/12/24 06:38:14;;;;;;;9.17;2.50;;;;;;;;;;5035645;28;20324;-60
2021/12/24 06:40:41;;;;;;;2.43;0.97;;;;;;;;;;5034884;28;20267;-60
2021/12/24 06:43:08;;;;;;;4.10;1.40;;;;;;;;;;5034864;28;20733;-60
2021/12/24 06:45:35;;;;;;;3.23;1.27;;;;;;;;;;5035231;28;20282;-60
2021/12/24 06:48:02;;;;;;;5.40;1.33;;;;;;;;;;5033798;28;20267;-61
2021/12/24 06:50:29;;;;;;;3.40;1.37;;;;;;;;;;5030136;28;20369;-61
2021/12/24 06:52:56;;;;;;;5.67;1.87;;;;;;;;;;5030361;28;20266;-60
2021/12/24 06:55:23;;;;;;;6.97;1.33;;;;;;;;;;5030109;28;20792;-60
2021/12/24 06:57:50;;;;;;;1.77;1.03;;;;;;;;;;5030491;28;20259;-60
2021/12/24 07:00:20;;;;;;;2.83;1.53;;;;;;;;;;5035241;28;20270;-60
2021/12/24 07:02:47;;;;;;;3.27;1.30;;;;;;;;;;5034630;28;20259;-60
2021/12/24 07:05:14;;;;;;;7.37;1.70;;;;;;;;;;5034684;28;20271;-60
2021/12/24 07:07:41;;;;;;;3.83;1.40;;;;;;;;;;5034615;28;20270;-60
2021/12/24 07:10:08;;;;;;;3.90;1.80;;;;;;;;;;5034212;28;20251;-60
2021/12/24 07:12:34;;;;;;;3.40;1.43;;;;;;;;;;5029667;28;20293;-60
2021/12/24 07:15:01;;;;;;;2.73;0.93;;;;;;;;;;5029715;28;20309;-60
2021/12/24 07:17:28;;;;;;;5.00;1.47;;;;;;;;;;5029714;28;20373;-60
2021/12/24 07:19:55;;;;;;;2.77;0.93;;;;;;;;;;5029164;28;20274;-60
2021/12/24 07:22:22;;;;;;;5.10;1.03;;;;;;;;;;5034779;28;20286;-60
2021/12/24 07:24:48;;;;;;;5.23;1.37;;;;;;;;;;5034201;28;20263;-61
2021/12/24 07:27:15;;;;;;;3.43;1.00;;;;;;;;;;5034780;28;20254;-60
2021/12/24 07:29:42;;;;;;;2.00;0.73;;;;;;;;;;5034364;28;20330;-60
2021/12/24 07:32:09;;;;;;;8.23;1.33;;;;;;;;;;5034058;28;22372;-60
2021/12/24 07:34:35;;;;;;;4.20;1.00;;;;;;;;;;5029192;28;20773;-60
2021/12/24 07:37:02;;;;;;;2.00;0.53;;;;;;;;;;5029354;28;20254;-60
2021/12/24 07:39:29;;;;;;;2.90;1.03;;;;;;;;;;5029277;28;20259;-60
2021/12/24 07:41:56;;;;;;;1.57;0.83;;;;;;;;;;5029588;28;20733;-60
2021/12/24 07:44:23;;;;;;;1.40;0.80;;;;;;;;;;5033775;28;20321;-60
2021/12/24 07:46:53;;;;;;;0.93;0.60;;;;;;;;;;5034460;28;20293;-60
2021/12/24 07:52:08;;;;;;;1.77;0.60;;;;;;;;;;5033674;28;20307;-60
2021/12/24 07:54:42;;;;;;;2.35;0.75;;;;;;;;;;5033144;28;20779;-60
2021/12/24 07:57:09;;;;;;;2.00;1.00;;;;;;;;;;5029110;28;20034;-60
2021/12/24 07:59:38;;;;;;;4.80;1.03;;;;;;;;;;5028579;28;20362;-61
2021/12/24 08:02:07;;;;;;;4.30;1.00;;;;;;;;;;5009384;28;20896;-60
2021/12/24 08:04:34;;;;;;;3.20;0.90;;;;;;;;;;5027538;28;20275;-60
2021/12/24 08:07:01;;;;;;;3.07;1.00;;;;;;;;;;5033609;28;20281;-59
2021/12/24 08:09:28;;;;;;;2.97;1.43;;;;;;;;;;5033356;28;20255;-59
2021/12/24 08:11:55;;;;;;;3.33;1.03;;;;;;;;;;5033622;28;20293;-60
2021/12/24 08:14:22;;;;;;;1.50;0.80;;;;;;;;;;5033457;28;20357;-59
2021/12/24 08:16:48;;;;;;;3.40;1.30;;;;;;;;;;5032830;28;20258;-60
2021/12/24 08:19:18;;;;;;;10.63;1.70;;;;;;;;;;5028542;28;20271;-60
2021/12/24 08:21:45;;;;;;;4.93;1.40;;;;;;;;;;5028484;28;20314;-59
2021/12/24 08:24:12;;;;;;;6.67;1.77;;;;;;;;;;5028246;28;20330;-59
2021/12/24 08:26:38;;;;;;;4.00;1.10;;;;;;;;;;5028261;28;20269;-60
2021/12/24 08:29:05;;;;;;;3.17;1.40;;;;;;;;;;5032824;28;20293;-60
2021/12/24 08:31:34;;;;;;;2.90;1.00;;;;;;;;;;5033109;28;20286;-60
2021/12/24 08:34:01;;;;;;;1.90;0.70;;;;;;;;;;5033490;28;20270;-59
2021/12/24 08:36:28;;;;;;;4.97;0.63;;;;;;;;;;5033227;28;20367;-60
2021/12/24 08:38:55;;;;;;;2.40;0.63;;;;;;;;;;5032462;28;20273;-60
2021/12/24 08:41:22;;;;;;;1.60;0.70;;;;;;;;;;5028078;28;20354;-60
2021/12/24 08:43:49;;;;;;;1.67;0.67;;;;;;;;;;5027720;28;20293;-60
2021/12/24 08:46:16;;;;;;;1.03;0.40;;;;;;;;;;5028439;28;20315;-60
2021/12/24 08:48:42;;;;;;;1.70;0.50;;;;;;;;;;5027758;28;20682;-60
2021/12/24 08:51:09;;;;;;;2.93;0.60;;;;;;;;;;5033274;28;20287;-59
2021/12/24 08:53:36;;;;;;;1.10;0.50;;;;;;;;;;5032667;28;20357;-60
2021/12/24 08:56:03;;;;;;;1.83;0.60;;;;;;;;;;5032420;28;20273;-60
2021/12/24 08:58:29;;;;;;;1.07;0.50;;;;;;;;;;5032368;28;20417;-60
2021/12/24 09:00:56;;;;;;;2.17;1.03;;;;;;;;;;5032489;28;20255;-60
2021/12/24 09:03:23;;;;;;;2.97;0.90;;;;;;;;;;5027658;28;20278;-60
2021/12/24 09:05:50;;;;;;;3.07;0.80;;;;;;;;;;5028031;28;20258;-59
2021/12/24 09:08:16;;;;;;;3.43;1.10;;;;;;;;;;5027396;28;20294;-59
2021/12/24 09:10:43;;;;;;;2.53;0.90;;;;;;;;;;5027569;28;20290;-60
2021/12/24 09:13:10;;;;;;;2.10;0.57;;;;;;;;;;5032489;28;20263;-59
2021/12/24 09:15:37;;;;;;;3.77;0.90;;;;;;;;;;5032750;28;20594;-59
2021/12/24 09:18:04;;;;;;;5.67;1.00;;;;;;;;;;5032331;28;20275;-61
2021/12/24 09:20:37;;;;;;;2.30;1.27;;;;;;;;;;5032743;28;20270;-59
2021/12/24 09:23:05;;;;;;;2.90;1.10;;;;;;;;;;5031808;28;20279;-60
2021/12/24 09:25:32;;;;;;;2.77;1.00;;;;;;;;;;5027253;28;20254;-60
2021/12/24 09:28:00;;;;;;;1.23;0.80;;;;;;;;;;5027139;28;20967;-60
2021/12/24 09:30:27;;;;;;;2.50;0.90;;;;;;;;;;5027031;28;20814;-60
2021/12/24 09:32:54;;;;;;;2.30;0.80;;;;;;;;;;5027112;28;20329;-60
2021/12/24 09:35:21;;;;;;;2.60;1.00;;;;;;;;;;5032256;28;20338;-60
2021/12/24 09:37:48;;;;;;;4.80;1.10;;;;;;;;;;5032281;28;20262;-59
2021/12/24 09:40:15;;;;;;;2.67;0.80;;;;;;;;;;5032473;28;20745;-60
2021/12/24 09:42:42;;;;;;;4.23;1.33;;;;;;;;;;5031796;28;20883;-60
2021/12/24 09:45:10;;;;;;;2.13;1.03;;;;;;;;;;5032141;28;20312;-59
2021/12/24 09:47:37;;;;;;;3.00;1.40;;;;;;;;;;5027275;28;20259;-60
2021/12/24 09:50:06;;;;;;;2.13;1.13;;;;;;;;;;5027039;28;20338;-60
2021/12/24 09:52:33;;;;;;;2.70;1.07;;;;;;;;;;5027031;28;20287;-59
2021/12/24 09:55:11;;;;;;;2.10;0.80;;;;;;;;;;5026784;28;20266;-60
2021/12/24 09:57:38;;;;;;;2.43;0.80;;;;;;;;;;5032071;28;20262;-60
2021/12/24 10:00:06;;;;;;;2.37;1.00;;;;;;;;;;5032014;28;20270;-60
2021/12/24 10:02:42;;;;;;;2.63;0.90;;;;;;;;;;5031992;28;20350;-60
2021/12/24 10:05:26;;;;;;;1.70;0.70;;;;;;;;;;5031415;28;20509;-59
2021/12/24 10:07:59;;;;;;;1.63;0.90;;;;;;;;;;5030365;28;20262;-59
2021/12/24 10:10:28;;;;;;;2.20;1.00;;;;;;;;;;5024395;28;20283;-60
2021/12/24 10:12:55;;;;;;;4.63;1.10;;;;;;;;;;5030941;28;20262;-59
2021/12/24 10:15:22;;;;;;;1.57;0.70;;;;;;;;;;5031006;28;21021;-59
2021/12/24 10:17:49;;;;;;;1.30;0.60;;;;;;;;;;5031042;28;20346;-60
2021/12/24 10:20:17;;;;;;;1.97;0.70;;;;;;;;;;5036178;28;20259;-59
2021/12/24 10:22:45;;;;;;;3.67;1.00;;;;;;;;;;5035750;28;20298;-59
2021/12/24 10:25:13;;;;;;;1.77;1.13;;;;;;;;;;5035710;28;20286;-59
2021/12/24 10:27:41;;;;;;;1.43;0.80;;;;;;;;;;5035481;28;20259;-59
2021/12/24 10:30:27;;;;;;;2.63;0.80;;;;;;;;;;5033940;28;20757;-59
2021/12/24 10:32:56;;;;;;;3.20;0.80;;;;;;;;;;5021864;28;20286;-59
2021/12/24 10:35:27;;;;;;;1.03;0.60;;;;;;;;;;5030616;28;20676;-59
2021/12/24 10:38:11;;;;;;;1.23;0.70;;;;;;;;;;5030553;28;20353;-59
2021/12/24 10:40:48;;;;;;;1.55;0.68;;;;;;;;;;5033091;28;20328;-59
2021/12/24 10:43:24;;;;;;;1.50;0.60;;;;;;;;;;5035148;28;20017;-60
2021/12/24 10:46:09;;;;;;;1.37;0.70;;;;;;;;;;5034931;28;20254;-59
2021/12/24 10:48:35;;;;;;;5.78;1.02;;;;;;;;;;5035038;28;20271;-59
2021/12/24 10:51:07;;;;;;;1.43;0.70;;;;;;;;;;5035558;28;20504;-59
2021/12/24 10:53:54;;;;;;;3.00;0.60;;;;;;;;;;5031030;28;20324;-59
2021/12/24 10:56:26;;;;;;;1.03;0.60;;;;;;;;;;5026050;28;20799;-59
2021/12/24 10:58:53;;;;;;;1.30;0.40;;;;;;;;;;5030083;28;20345;-59
2021/12/24 11:01:20;;;;;;;2.77;0.60;;;;;;;;;;5030175;28;20773;-59
2021/12/24 11:03:46;;;;;;;0.80;0.40;;;;;;;;;;5034282;28;20270;-59
2021/12/24 11:06:15;;;;;;;1.80;0.80;;;;;;;;;;5035267;28;20251;-59
2021/12/24 11:08:42;;;;;;;4.10;0.70;;;;;;;;;;5034760;28;20328;-59
2021/12/24 11:11:11;;;;;;;3.20;1.00;;;;;;;;;;5034379;28;20338;-59
2021/12/24 11:13:40;;;;;;;0.77;0.50;;;;;;;;;;5034383;28;20350;-59
2021/12/24 11:16:10;;;;;;;1.03;0.50;;;;;;;;;;5029590;28;20263;-59
2021/12/24 11:18:39;;;;;;;1.77;0.70;;;;;;;;;;5029788;28;20297;-59
2021/12/24 11:21:07;;;;;;;1.83;0.50;;;;;;;;;;5029683;28;20313;-59
2021/12/24 11:23:36;;;;;;;1.27;0.60;;;;;;;;;;5027848;28;20286;-59
2021/12/24 11:26:22;;;;;;;3.33;0.60;;;;;;;;;;5034514;28;20286;-59
2021/12/24 11:28:48;;;;;;;1.67;0.70;;;;;;;;;;5034518;28;20301;-59
2021/12/24 11:31:20;;;;;;;1.93;0.80;;;;;;;;;;5034095;28;20360;-60
2021/12/24 11:33:48;;;;;;;1.37;0.77;;;;;;;;;;5034047;28;20266;-59
2021/12/24 11:36:16;;;;;;;1.83;0.60;;;;;;;;;;5033794;28;20271;-59
2021/12/24 11:38:44;;;;;;;2.57;0.80;;;;;;;;;;5029345;28;20354;-59
2021/12/24 11:41:14;;;;;;;1.60;0.80;;;;;;;;;;5029320;28;20267;-59
2021/12/24 11:43:42;;;;;;;4.07;1.17;;;;;;;;;;5029240;28;20705;-59
2021/12/24 11:46:11;;;;;;;1.83;0.90;;;;;;;;;;5029255;28;20269;-59
2021/12/24 11:48:38;;;;;;;4.67;0.90;;;;;;;;;;5034113;28;20298;-59
2021/12/24 11:51:14;;;;;;;1.50;0.83;;;;;;;;;;5034114;28;20294;-59
2021/12/24 11:53:41;;;;;;;1.30;1.03;;;;;;;;;;5034070;28;20270;-59
2021/12/24 11:56:10;;;;;;;4.60;0.90;;;;;;;;;;5034267;28;20255;-59
2021/12/24 11:58:44;;;;;;;1.90;1.00;;;;;;;;;;5032425;28;20321;-60
2021/12/24 12:01:11;;;;;;;3.07;1.00;;;;;;;;;;5028882;28;20262;-59
2021/12/24 12:03:52;;;;;;;4.43;1.07;;;;;;;;;;5028405;28;20271;-59
2021/12/24 12:06:18;;;;;;;1.70;0.77;;;;;;;;;;5028894;28;20281;-59
2021/12/24 12:08:46;;;;;;;2.67;0.97;;;;;;;;;;5029351;28;20591;-59
2021/12/24 12:11:20;;;;;;;1.83;1.07;;;;;;;;;;5034116;28;20282;-59
2021/12/24 12:13:49;;;;;;;2.47;1.00;;;;;;;;;;5033487;28;20314;-59
2021/12/24 12:16:20;;;;;;;2.37;0.97;;;;;;;;;;5033737;28;20025;-59
2021/12/24 12:19:12;;;;;;;1.33;0.70;;;;;;;;;;5033531;28;20278;-59
2021/12/24 12:21:42;;;;;;;2.47;1.30;;;;;;;;;;5030661;28;20287;-59
2021/12/24 12:26:41;;;;;;;1.17;0.73;;;;;;;;;;5028426;28;20293;-59
2021/12/24 12:29:23;;;;;;;4.07;1.03;;;;;;;;;;5027769;28;20324;-59
2021/12/24 12:31:56;;;;;;;1.97;0.90;;;;;;;;;;5031696;28;20278;-59
2021/12/24 12:34:46;;;;;;;2.43;1.10;;;;;;;;;;5032989;28;20266;-59
2021/12/24 12:37:41;;;;;;;2.77;1.17;;;;;;;;;;5032478;28;20753;-59
2021/12/24 12:40:13;;;;;;;1.60;0.73;;;;;;;;;;5033194;28;20271;-59
2021/12/24 12:42:50;;;;;;;3.40;1.53;;;;;;;;;;5032337;28;20250;-59
2021/12/24 12:45:19;;;;;;;2.87;1.20;;;;;;;;;;5027961;28;20401;-59
2021/12/24 12:47:56;;;;;;;4.03;1.10;;;;;;;;;;5028484;28;20270;-59
2021/12/24 12:50:23;;;;;;;2.97;1.23;;;;;;;;;;5027331;28;20349;-59
2021/12/24 12:52:53;;;;;;;1.93;1.07;;;;;;;;;;5028637;28;20626;-60
2021/12/24 12:55:33;;;;;;;4.57;1.00;;;;;;;;;;5032913;28;20772;-60
2021/12/24 12:58:22;;;;;;;6.20;1.70;;;;;;;;;;5013159;28;20667;-61
2021/12/24 13:01:07;;;;;;;5.33;1.10;;;;;;;;;;5032699;28;20309;-59
2021/12/24 13:03:54;;;;;;;4.38;2.00;;;;;;;;;;5032889;28;20270;-59
2021/12/24 13:06:21;;;;;;;2.10;1.00;;;;;;;;;;5028833;28;20052;-59
2021/12/24 13:08:47;;;;;;;1.40;0.80;;;;;;;;;;5027052;28;20270;-59
2021/12/24 13:11:16;;;;;;;1.47;0.73;;;;;;;;;;5027414;28;20298;-59
2021/12/24 13:13:52;;;;;;;1.33;0.57;;;;;;;;;;5027362;28;20365;-60
2021/12/24 13:16:21;;;;;;;2.97;0.87;;;;;;;;;;5015838;28;20270;-59
2021/12/24 13:18:58;;;;;;;4.63;1.27;;;;;;;;;;5032391;28;20676;-59
2021/12/24 13:24:11;;;;;;;3.05;1.10;;;;;;;;;;5032229;28;20316;-59
2021/12/24 13:26:38;;;;;;;4.40;0.93;;;;;;;;;;5032475;28;20025;-59
2021/12/24 13:29:27;;;;;;;2.67;1.00;;;;;;;;;;5026633;28;20282;-59
2021/12/24 13:31:57;;;;;;;2.53;1.20;;;;;;;;;;5027233;28;20287;-59
2021/12/24 13:34:25;;;;;;;3.80;1.43;;;;;;;;;;5027449;28;20274;-59
2021/12/24 13:36:54;;;;;;;3.20;1.23;;;;;;;;;;5027612;28;20263;-59
2021/12/24 13:39:22;;;;;;;3.63;1.67;;;;;;;;;;5031729;28;20278;-58
2021/12/24 13:41:59;;;;;;;4.17;2.40;;;;;;;;;;5031685;28;20274;-59
2021/12/24 13:44:28;;;;;;;7.40;1.67;;;;;;;;;;5032267;28;20272;-58
2021/12/24 13:47:02;;;;;;;8.40;2.20;;;;;;;;;;5031227;28;20775;-58
2021/12/24 13:55:27;;;;;;;;;;;;;;;;;;5021858;28;20871;-59
2021/12/24 13:57:58;;;;;;;7.20;2.47;;;;;;;;;;5027013;28;19920;-59
2021/12/24 14:00:25;;;;;;;4.73;2.23;;;;;;;;;;5030306;28;20263;-59
2021/12/24 14:02:52;;;;;;;4.83;2.10;;;;;;;;;;5032323;28;20338;-59
2021/12/24 14:05:19;;;;;;;9.73;2.73;;;;;;;;;;5031453;28;20294;-59
2021/12/24 14:07:47;;;;;;;19.43;4.30;;;;;;;;;;5032177;28;20286;-59
2021/12/24 14:10:21;;;;;;;7.17;2.33;;;;;;;;;;5031482;28;20368;-59
2021/12/24 14:12:48;;;;;;;6.03;2.80;;;;;;;;;;5027441;28;20318;-59
2021/12/24 14:15:21;;;;;;;6.50;2.23;;;;;;;;;;5026739;28;20022;-60
2021/12/24 14:18:16;;;;;;;10.53;3.30;;;;;;;;;;5026346;28;20269;-61
2021/12/24 14:23:22;;;;;;;12.52;3.67;;;;;;;;;;5012060;28;20274;-60
2021/12/24 14:25:59;;;;;;;7.63;3.33;;;;;;;;;;5012058;28;20042;-59
2021/12/24 14:28:26;;;;;;;7.30;3.27;;;;;;;;;;5014725;28;20480;-59
2021/12/24 14:31:00;;;;;;;10.67;3.27;;;;;;;;;;5031628;28;20290;-59
2021/12/24 14:33:27;;;;;;;5.90;3.00;;;;;;;;;;5030287;28;20271;-60
2021/12/24 14:35:56;;;;;;;9.37;4.77;;;;;;;;;;5026026;28;20412;-60
2021/12/24 14:38:26;;;;;;;20.17;5.37;;;;;;;;;;5026373;28;20267;-59
2021/12/24 14:40:59;;;;;;;14.53;5.30;;;;;;;;;;5026092;28;20262;-60
2021/12/24 14:43:27;;;;;;;8.47;5.00;;;;;;;;;;5027185;28;20379;-60
2021/12/24 14:45:54;;;;;;;13.13;5.23;;;;;;;;;;5031575;28;20358;-59
2021/12/24 14:48:25;;;;;;;19.20;6.27;;;;;;;;;;5031032;28;20030;-60
2021/12/24 14:50:58;;;;;;;13.50;5.07;;;;;;;;;;5031595;28;20107;-60
2021/12/24 14:53:27;;;;;;;12.03;4.47;;;;;;;;;;5031395;28;20013;-60
2021/12/24 14:55:55;;;;;;;8.87;3.47;;;;;;;;;;5029338;28;20038;-60
2021/12/24 14:58:28;;;;;;;9.40;3.10;;;;;;;;;;5028705;28;20029;-60
2021/12/24 15:00:55;;;;;;;8.70;2.47;;;;;;;;;;5029226;28;20080;-60
2021/12/24 15:03:23;;;;;;;7.60;1.63;;;;;;;;;;5029731;28;20041;-60
2021/12/24 15:05:52;;;;;;;15.50;2.73;;;;;;;;;;5031104;28;20084;-60
2021/12/24 15:08:26;;;;;;;4.23;1.60;;;;;;;;;;5034666;28;20072;-60
2021/12/24 15:11:00;;;;;;;4.57;1.47;;;;;;;;;;5034591;28;20354;-60
2021/12/24 15:13:27;;;;;;;3.87;1.77;;;;;;;;;;5034720;28;20271;-60
2021/12/24 15:15:55;;;;;;;9.40;2.27;;;;;;;;;;5034132;28;20036;-60
2021/12/24 15:18:22;;;;;;;5.03;2.50;;;;;;;;;;5033730;28;20443;-60
2021/12/24 15:20:49;;;;;;;5.23;2.80;;;;;;;;;;5029565;28;20753;-60
2021/12/24 15:23:16;;;;;;;6.63;2.40;;;;;;;;;;5029365;28;20416;-60
2021/12/24 15:25:44;;;;;;;9.40;3.03;;;;;;;;;;5029150;28;20034;-60
2021/12/24 15:28:12;;;;;;;4.93;2.67;;;;;;;;;;5030778;28;20431;-60
2021/12/24 15:30:40;;;;;;;4.13;1.77;;;;;;;;;;5034320;28;20038;-60
2021/12/24 15:33:07;;;;;;;5.90;1.97;;;;;;;;;;5034684;28;20022;-60
2021/12/24 15:35:34;;;;;;;3.67;1.73;;;;;;;;;;5034305;28;20022;-60
2021/12/24 15:38:02;;;;;;;3.57;1.60;;;;;;;;;;5034094;28;20033;-61
2021/12/24 15:40:29;;;;;;;3.30;1.60;;;;;;;;;;5031599;28;20029;-60
2021/12/24 15:43:00;;;;;;;2.27;1.30;;;;;;;;;;5028835;28;20029;-61
2021/12/24 15:45:27;;;;;;;2.60;1.10;;;;;;;;;;5028982;28;20538;-61
2021/12/24 15:47:54;;;;;;;6.70;1.57;;;;;;;;;;5028604;28;20060;-60
2021/12/24 15:50:21;;;;;;;3.80;1.47;;;;;;;;;;5030920;28;20030;-60
2021/12/24 15:52:47;;;;;;;4.00;1.50;;;;;;;;;;5033822;28;20052;-60
2021/12/24 15:55:14;;;;;;;4.17;1.50;;;;;;;;;;5034024;28;20562;-60
2021/12/24 15:57:41;;;;;;;3.10;1.53;;;;;;;;;;5033847;28;20029;-61
2021/12/24 16:00:08;;;;;;;2.40;1.20;;;;;;;;;;5033981;28;20049;-60
2021/12/24 16:02:35;;;;;;;2.67;1.40;;;;;;;;;;5031686;28;20029;-60
2021/12/24 16:05:01;;;;;;;2.03;1.00;;;;;;;;;;5028255;28;20021;-61
2021/12/24 16:07:29;;;;;;;1.93;1.07;;;;;;;;;;5028312;28;20025;-61
2021/12/24 16:09:56;;;;;;;2.10;0.93;;;;;;;;;;5027521;28;20416;-61
2021/12/24 16:12:23;;;;;;;2.27;1.30;;;;;;;;;;5030231;28;20037;-60
2021/12/24 16:14:50;;;;;;;7.60;1.70;;;;;;;;;;5033576;28;20385;-61
2021/12/24 16:17:16;;;;;;;5.03;1.83;;;;;;;;;;5033097;28;20057;-61
2021/12/24 16:19:43;;;;;;;4.30;2.27;;;;;;;;;;5033274;28;20026;-61
2021/12/24 16:22:12;;;;;;;6.57;2.80;;;;;;;;;;5033137;28;20108;-61
2021/12/24 16:24:40;;;;;;;9.57;2.60;;;;;;;;;;5031355;28;20108;-61
2021/12/24 16:27:09;;;;;;;6.00;2.50;;;;;;;;;;5028291;28;20041;-61
2021/12/24 16:29:45;;;;;;;10.03;2.70;;;;;;;;;;5028211;28;20427;-60
2021/12/24 16:32:12;;;;;;;8.80;2.07;;;;;;;;;;5027928;28;20029;-61
2021/12/24 16:34:41;;;;;;;9.00;2.27;;;;;;;;;;5029575;28;20029;-61
2021/12/24 16:37:08;;;;;;;5.07;2.47;;;;;;;;;;5033217;28;20026;-61
2021/12/24 16:39:35;;;;;;;10.63;2.13;;;;;;;;;;5033899;28;20064;-61